createdAt,value
2018-08-13T00:01:34.868Z,97569.08
2018-08-13T00:04:03.766Z,97570.68
2018-08-13T00:06:32.586Z,97571.59
2018-08-13T00:09:01.262Z,97563.98
2018-08-13T00:11:30.214Z,97554.98
2018-08-13T00:13:59.025Z,97556.79
2018-08-13T00:16:27.735Z,97554.98
2018-08-13T00:18:57.052Z,97551.94
2018-08-13T00:21:26.072Z,97551.70
2018-08-13T00:23:54.822Z,97556.69
2018-08-13T00:26:23.515Z,97547.97
2018-08-13T00:28:52.331Z,97542.27
2018-08-13T00:31:21.091Z,97538.08
2018-08-13T00:33:49.749Z,97539.76
2018-08-13T00:36:18.421Z,97535.56
2018-08-13T00:38:47.426Z,97541.67
2018-08-13T00:41:16.076Z,97534.02
2018-08-13T00:43:44.788Z,97539.00
2018-08-13T00:46:13.718Z,97543.53
2018-08-13T00:48:42.684Z,97540.67
2018-08-13T00:51:11.897Z,97536.23
2018-08-13T00:53:41.140Z,97539.75
2018-08-13T00:56:09.924Z,97536.01
2018-08-13T00:58:39.417Z,97534.84
2018-08-13T01:01:08.815Z,97529.85
2018-08-13T01:03:37.605Z,97524.86
2018-08-13T01:06:06.349Z,97521.19
2018-08-13T01:08:36.276Z,97512.80
2018-08-13T01:11:05.184Z,97514.81
2018-08-13T01:13:34.102Z,97512.64
2018-08-13T01:16:03.172Z,97505.67
2018-08-13T01:18:31.954Z,97511.81
2018-08-13T01:21:00.691Z,97502.28
2018-08-13T01:23:29.461Z,97502.73
2018-08-13T01:25:58.226Z,97507.01
2018-08-13T01:28:27.158Z,97496.83
2018-08-13T01:30:56.040Z,97500.22
2018-08-13T01:33:24.656Z,97496.23
2018-08-13T01:35:54.005Z,97496.14
2018-08-13T01:38:22.837Z,97495.68
2018-08-13T01:40:51.442Z,97499.27
2018-08-13T01:43:20.753Z,97494.95
2018-08-13T01:45:49.980Z,97497.36
2018-08-13T01:48:19.074Z,97493.54
2018-08-13T01:50:48.380Z,97501.44
2018-08-13T01:53:17.005Z,97498.08
2018-08-13T01:55:45.978Z,97496.25
2018-08-13T01:58:14.781Z,97493.54
2018-08-13T02:00:43.552Z,97494.28
2018-08-13T02:03:12.635Z,97492.27
2018-08-13T02:05:41.520Z,97487.64
2018-08-13T02:08:10.170Z,97489.90
2018-08-13T02:10:39.160Z,97492.70
2018-08-13T02:13:07.869Z,97485.30
2018-08-13T02:15:36.702Z,97495.58
2018-08-13T02:18:05.670Z,97493.20
2018-08-13T02:20:35.095Z,97494.56
2018-08-13T02:23:03.920Z,97487.09
2018-08-13T02:25:33.484Z,97493.23
2018-08-13T02:28:02.061Z,97494.25
2018-08-13T02:30:30.961Z,97488.23
2018-08-13T02:33:00.215Z,97489.53
2018-08-13T02:35:28.951Z,97482.34
2018-08-13T02:37:57.630Z,97478.48
2018-08-13T02:40:27.486Z,97475.73
2018-08-13T02:42:56.315Z,97475.00
2018-08-13T02:45:25.363Z,97473.33
2018-08-13T02:47:54.449Z,97468.67
2018-08-13T02:50:23.117Z,97446.55
2018-08-13T02:52:52.006Z,97466.95
2018-08-13T02:55:20.896Z,97465.44
2018-08-13T02:57:49.507Z,97481.38
2018-08-13T03:00:19.011Z,97475.58
2018-08-13T03:02:47.821Z,97479.50
2018-08-13T03:05:17.140Z,97483.66
2018-08-13T03:07:45.928Z,97483.75
2018-08-13T03:10:14.604Z,97481.53
2018-08-13T03:12:43.684Z,97476.75
2018-08-13T03:15:14.902Z,97476.97
2018-08-13T03:17:43.820Z,97465.98
2018-08-13T03:20:13.726Z,97473.79
2018-08-13T03:22:42.892Z,97471.54
2018-08-13T03:25:11.903Z,97475.30
2018-08-13T03:27:40.747Z,97470.43
2018-08-13T03:30:11.138Z,97479.92
2018-08-13T03:32:40.480Z,97471.08
2018-08-13T03:35:09.878Z,97471.94
2018-08-13T03:37:38.636Z,97473.05
2018-08-13T03:40:10.492Z,97473.25
2018-08-13T03:42:39.442Z,97468.00
2018-08-13T03:45:09.791Z,97472.32
2018-08-13T03:47:38.595Z,97471.19
2018-08-13T03:50:08.790Z,97467.78
2018-08-13T03:52:37.415Z,97454.44
2018-08-13T03:55:07.719Z,97453.97
2018-08-13T03:57:36.845Z,97456.40
2018-08-13T04:00:10.325Z,97449.40
2018-08-13T04:02:38.967Z,97446.02
2018-08-13T04:05:08.732Z,97444.39
2018-08-13T04:07:38.396Z,97443.58
2018-08-13T04:10:09.259Z,97432.91
2018-08-13T04:12:39.806Z,97427.73
2018-08-13T04:15:09.921Z,97426.50
2018-08-13T04:17:39.968Z,97420.05
2018-08-13T04:20:10.392Z,97420.15
2018-08-13T04:22:39.546Z,97420.77
2018-08-13T04:25:09.592Z,97420.09
2018-08-13T04:27:39.931Z,97421.35
2018-08-13T04:30:17.912Z,97415.28
2018-08-13T04:32:47.454Z,97410.34
2018-08-13T04:35:16.616Z,97404.92
2018-08-13T04:37:46.662Z,97400.59
2018-08-13T04:40:16.814Z,97402.46
2018-08-13T04:42:48.150Z,97407.34
2018-08-13T04:45:17.209Z,97411.29
2018-08-13T04:47:50.976Z,97416.03
2018-08-13T04:50:19.847Z,97417.64
2018-08-13T04:52:48.976Z,97415.84
2018-08-13T04:55:18.360Z,97418.61
2018-08-13T04:57:47.220Z,97418.80
2018-08-13T05:00:15.832Z,97419.94
2018-08-13T05:02:44.736Z,97425.44
2018-08-13T05:05:14.479Z,97420.29
2018-08-13T05:07:43.106Z,97422.08
2018-08-13T05:10:12.288Z,97434.76
2018-08-13T05:12:41.723Z,97434.14
2018-08-13T05:15:11.348Z,97430.75
2018-08-13T05:17:39.987Z,97427.03
2018-08-13T05:20:09.717Z,97415.28
2018-08-13T05:22:38.460Z,97406.38
2018-08-13T05:25:08.532Z,97411.16
2018-08-13T05:27:37.975Z,97412.16
2018-08-13T05:30:08.072Z,97403.33
2018-08-13T05:32:36.829Z,97417.91
2018-08-13T05:35:06.675Z,97417.46
2018-08-13T05:37:35.673Z,97420.61
2018-08-13T05:40:05.847Z,97418.63
2018-08-13T05:42:34.891Z,97411.08
2018-08-13T05:45:04.590Z,97416.16
2018-08-13T05:47:33.885Z,97422.27
2018-08-13T05:50:02.781Z,97425.94
2018-08-13T05:52:31.456Z,97430.03
2018-08-13T05:55:00.243Z,97434.66
2018-08-13T05:57:29.102Z,97434.38
2018-08-13T05:59:58.001Z,97433.63
2018-08-13T06:02:27.250Z,97431.78
2018-08-13T06:04:56.211Z,97438.60
2018-08-13T06:07:25.369Z,97451.97
2018-08-13T06:09:54.262Z,97461.63
2018-08-13T06:12:23.588Z,97452.81
2018-08-13T06:14:52.212Z,97458.59
2018-08-13T06:17:21.511Z,97450.92
2018-08-13T06:19:50.551Z,97456.08
2018-08-13T06:22:19.596Z,97462.22
2018-08-13T06:24:48.332Z,97467.37
2018-08-13T06:27:16.939Z,97476.80
2018-08-13T06:29:45.742Z,97476.90
2018-08-13T06:32:14.706Z,97467.36
2018-08-13T06:34:44.198Z,97470.43
2018-08-13T06:37:13.162Z,97468.05
2018-08-13T06:39:42.238Z,97470.17
2018-08-13T06:42:11.633Z,97472.42
2018-08-13T06:44:40.454Z,97483.27
2018-08-13T06:47:09.766Z,97474.05
2018-08-13T06:49:38.342Z,97491.16
2018-08-13T06:52:07.539Z,97498.78
2018-08-13T06:54:36.652Z,97501.33
2018-08-13T06:57:06.562Z,97516.16
2018-08-13T06:59:36.149Z,97521.88
2018-08-13T07:02:05.287Z,97511.38
2018-08-13T07:04:34.843Z,97509.53
2018-08-13T07:07:03.912Z,97512.25
2018-08-13T07:09:33.157Z,97516.69
2018-08-13T07:12:01.848Z,97520.97
2018-08-13T07:14:30.527Z,97522.02
2018-08-13T07:16:59.556Z,97523.43
2018-08-13T07:19:28.461Z,97529.59
2018-08-13T07:21:57.267Z,97539.05
2018-08-13T07:24:26.395Z,97542.24
2018-08-13T07:26:56.532Z,97540.50
2018-08-13T07:29:26.946Z,97543.13
2018-08-13T07:31:55.691Z,97542.22
2018-08-13T07:34:25.258Z,97554.66
2018-08-13T07:36:54.496Z,97561.77
2018-08-13T07:39:23.176Z,97561.00
2018-08-13T07:41:51.919Z,97563.97
2018-08-13T07:44:20.883Z,97566.13
2018-08-13T07:46:49.681Z,97568.08
2018-08-13T07:49:18.686Z,97568.97
2018-08-13T07:51:47.466Z,97563.53
2018-08-13T07:54:16.231Z,97573.89
2018-08-13T07:56:44.962Z,97570.80
2018-08-13T07:59:14.503Z,97573.39
2018-08-13T08:01:43.697Z,97557.47
2018-08-13T08:04:12.793Z,97548.46
2018-08-13T08:06:42.582Z,97548.11
2018-08-13T08:09:13.171Z,97547.39
2018-08-13T08:11:42.866Z,97549.85
2018-08-13T08:14:11.888Z,97557.48
2018-08-13T08:16:40.778Z,97554.77
2018-08-13T08:19:09.639Z,97559.69
2018-08-13T08:21:38.308Z,97575.19
2018-08-13T08:24:07.487Z,97585.91
2018-08-13T08:26:36.153Z,97583.08
2018-08-13T08:29:05.832Z,97580.75
2018-08-13T08:31:35.392Z,97576.44
2018-08-13T08:34:05.665Z,97588.91
2018-08-13T08:36:34.736Z,97589.51
2018-08-13T08:39:05.971Z,97592.27
2018-08-13T08:41:36.274Z,97588.88
2018-08-13T08:44:06.250Z,97582.92
2018-08-13T08:46:35.807Z,97581.74
2018-08-13T08:49:05.048Z,97585.14
2018-08-13T08:51:33.918Z,97590.48
2018-08-13T08:54:03.746Z,97593.47
2018-08-13T08:56:32.573Z,97597.23
2018-08-13T08:59:02.517Z,97595.08
2018-08-13T09:01:32.010Z,97591.33
2018-08-13T09:04:01.840Z,97584.63
2018-08-13T09:06:30.484Z,97593.09
2018-08-13T09:08:59.548Z,97596.06
2018-08-13T09:11:30.215Z,97599.41
2018-08-13T09:13:59.198Z,97614.61
2018-08-13T09:16:28.427Z,97619.55
2018-08-13T09:20:10.281Z,97619.36
2018-08-13T09:22:50.716Z,97627.03
2018-08-13T09:25:30.549Z,97640.25
2018-08-13T09:28:10.526Z,97647.75
2018-08-13T09:30:50.443Z,97652.66
2018-08-13T09:33:30.443Z,97651.09
2018-08-13T09:35:59.552Z,97665.28
2018-08-13T09:38:28.378Z,97662.53
2018-08-13T09:40:57.052Z,97663.13
2018-08-13T09:43:25.984Z,97663.13
2018-08-13T09:45:54.623Z,97664.34
2018-08-13T09:48:23.650Z,97660.75
2018-08-13T09:50:52.619Z,97659.77
2018-08-13T09:53:22.169Z,97669.26
2018-08-13T09:55:51.098Z,97667.89
2018-08-13T09:58:21.014Z,97659.23
2018-08-13T10:00:54.763Z,97655.85
2018-08-13T10:03:23.772Z,97654.86
2018-08-13T10:05:53.411Z,97654.08
2018-08-13T10:08:22.531Z,97649.92
2018-08-13T10:10:51.721Z,97653.69
2018-08-13T10:13:20.839Z,97654.08
2018-08-13T10:15:49.762Z,97659.03
2018-08-13T10:18:18.502Z,97654.08
2018-08-13T10:20:47.540Z,97659.41
2018-08-13T10:23:16.683Z,97658.63
2018-08-13T10:25:45.684Z,97662.76
2018-08-13T10:28:14.461Z,97662.56
2018-08-13T10:30:43.129Z,97660.20
2018-08-13T10:33:12.659Z,97649.52
2018-08-13T10:35:41.804Z,97649.30
2018-08-13T10:38:12.299Z,97656.23
2018-08-13T10:40:41.239Z,97651.05
2018-08-13T10:43:10.552Z,97656.98
2018-08-13T10:45:40.690Z,97651.24
2018-08-13T10:48:09.637Z,97653.41
2018-08-13T10:50:38.468Z,97651.41
2018-08-13T10:53:07.458Z,97645.47
2018-08-13T10:55:37.326Z,97647.23
2018-08-13T10:58:06.529Z,97648.46
2018-08-13T11:00:35.347Z,97653.83
2018-08-13T11:03:04.419Z,97661.75
2018-08-13T11:05:33.167Z,97640.83
2018-08-13T11:08:02.485Z,97630.77
2018-08-13T11:10:31.207Z,97629.80
2018-08-13T11:13:00.723Z,97629.99
2018-08-13T11:15:29.423Z,97631.40
2018-08-13T11:17:58.321Z,97630.00
2018-08-13T11:20:27.874Z,97636.14
2018-08-13T11:22:57.160Z,97635.34
2018-08-13T11:25:26.162Z,97633.97
2018-08-13T11:27:58.586Z,97621.91
2018-08-13T11:30:27.633Z,97609.88
2018-08-13T11:32:57.129Z,97595.13
2018-08-13T11:35:26.217Z,97592.75
2018-08-13T11:37:55.013Z,97599.83
2018-08-13T11:40:23.850Z,97605.53
2018-08-13T11:42:52.763Z,97603.72
2018-08-13T11:45:22.038Z,97608.43
2018-08-13T11:47:51.468Z,97596.38
2018-08-13T11:50:21.092Z,97590.61
2018-08-13T11:52:51.027Z,97588.78
2018-08-13T11:55:20.608Z,97588.55
2018-08-13T11:57:50.313Z,97590.53
2018-08-13T12:00:19.335Z,97599.27
2018-08-13T12:02:48.284Z,97596.34
2018-08-13T12:05:17.870Z,97591.22
2018-08-13T12:07:46.729Z,97582.97
2018-08-13T12:10:15.948Z,97585.34
2018-08-13T12:12:45.168Z,97580.00
2018-08-13T12:15:14.615Z,97580.20
2018-08-13T12:17:43.751Z,97579.61
2018-08-13T12:20:15.035Z,97559.48
2018-08-13T12:22:44.578Z,97571.93
2018-08-13T12:25:24.498Z,97565.62
2018-08-13T12:27:53.793Z,97565.67
2018-08-13T12:30:22.570Z,97567.26
2018-08-13T12:32:53.439Z,97568.47
2018-08-13T12:35:22.206Z,97561.58
2018-08-13T12:37:51.350Z,97557.63
2018-08-13T12:40:20.459Z,97552.89
2018-08-13T12:42:49.418Z,97549.74
2018-08-13T12:45:18.948Z,97547.80
2018-08-13T12:47:48.305Z,97553.92
2018-08-13T12:50:18.635Z,97546.63
2018-08-13T12:52:48.551Z,97546.03
2018-08-13T12:55:17.810Z,97545.02
2018-08-13T12:57:46.643Z,97542.09
2018-08-13T13:00:17.330Z,97541.28
2018-08-13T13:02:46.176Z,97544.42
2018-08-13T13:05:16.273Z,97534.52
2018-08-13T13:07:46.949Z,97530.92
2018-08-13T13:10:17.039Z,97530.66
2018-08-13T13:12:46.022Z,97537.33
2018-08-13T13:15:17.785Z,97548.02
2018-08-13T13:17:46.696Z,97540.55
2018-08-13T13:20:18.274Z,97534.40
2018-08-13T13:22:47.799Z,97536.81
2018-08-13T13:25:17.299Z,97544.35
2018-08-13T13:27:46.638Z,97537.49
2018-08-13T13:30:16.657Z,97546.35
2018-08-13T13:32:46.579Z,97529.02
2018-08-13T13:35:17.026Z,97527.09
2018-08-13T13:37:46.316Z,97525.27
2018-08-13T13:40:16.487Z,97524.50
2018-08-13T13:42:45.313Z,97517.44
2018-08-13T13:45:15.488Z,97519.06
2018-08-13T13:47:45.334Z,97512.44
2018-08-13T13:50:15.715Z,97511.42
2018-08-13T13:52:44.939Z,97509.14
2018-08-13T13:55:14.092Z,97508.81
2018-08-13T13:57:42.975Z,97503.19
2018-08-13T14:00:18.126Z,97507.09
2018-08-13T14:02:48.525Z,97502.17
2018-08-13T14:05:18.078Z,97508.95
2018-08-13T14:07:46.925Z,97504.15
2018-08-13T14:10:17.532Z,97500.67
2018-08-13T14:12:46.928Z,97501.32
2018-08-13T14:15:17.506Z,97496.42
2018-08-13T14:17:46.500Z,97497.27
2018-08-13T14:20:15.560Z,97488.33
2018-08-13T14:22:44.154Z,97479.77
2018-08-13T14:25:14.279Z,97475.62
2018-08-13T14:27:43.458Z,97472.66
2018-08-13T14:30:22.908Z,97464.45
2018-08-13T14:32:51.793Z,97456.16
2018-08-13T14:35:21.799Z,97456.55
2018-08-13T14:37:51.449Z,97452.38
2018-08-13T14:40:20.197Z,97449.41
2018-08-13T14:42:49.415Z,97449.41
2018-08-13T14:45:19.062Z,97439.71
2018-08-13T14:47:49.581Z,97440.80
2018-08-13T14:50:18.433Z,97438.38
2018-08-13T14:52:48.464Z,97438.30
2018-08-13T14:55:18.556Z,97439.28
2018-08-13T14:57:47.518Z,97436.67
2018-08-13T15:00:30.804Z,97442.25
2018-08-13T15:02:59.850Z,97437.19
2018-08-13T15:05:28.763Z,97430.30
2018-08-13T15:07:57.650Z,97429.74
2018-08-13T15:10:26.863Z,97428.72
2018-08-13T15:12:56.189Z,97434.95
2018-08-13T15:15:25.143Z,97432.94
2018-08-13T15:17:54.319Z,97431.55
2018-08-13T15:20:25.325Z,97427.53
2018-08-13T15:22:54.725Z,97417.49
2018-08-13T15:25:23.934Z,97435.33
2018-08-13T15:27:53.274Z,97434.50
2018-08-13T15:30:22.779Z,97420.80
2018-08-13T15:32:52.409Z,97428.16
2018-08-13T15:35:21.472Z,97424.75
2018-08-13T15:37:50.836Z,97429.51
2018-08-13T15:40:20.070Z,97426.73
2018-08-13T15:42:49.401Z,97424.81
2018-08-13T15:45:20.129Z,97436.69
2018-08-13T15:47:49.621Z,97434.69
2018-08-13T15:50:20.064Z,97437.70
2018-08-13T15:52:49.535Z,97435.75
2018-08-13T15:55:18.641Z,97434.33
2018-08-13T15:57:47.939Z,97431.05
2018-08-13T16:00:23.760Z,97426.36
2018-08-13T16:02:52.805Z,97414.54
2018-08-13T16:05:22.124Z,97407.70
2018-08-13T16:07:51.463Z,97406.60
2018-08-13T16:10:20.492Z,97404.37
2018-08-13T16:12:49.353Z,97407.27
2018-08-13T16:15:18.254Z,97403.21
2018-08-13T16:17:47.140Z,97419.19
2018-08-13T16:20:17.994Z,97410.11
2018-08-13T16:22:47.523Z,97415.80
2018-08-13T16:25:17.018Z,97411.20
2018-08-13T16:27:46.699Z,97410.83
2018-08-13T16:30:21.463Z,97419.83
2018-08-13T16:32:51.189Z,97411.41
2018-08-13T16:35:20.680Z,97425.67
2018-08-13T16:37:49.825Z,97456.99
2018-08-13T16:40:19.270Z,97482.95
2018-08-13T16:42:48.502Z,97487.28
2018-08-13T16:45:18.529Z,97479.82
2018-08-13T16:47:47.620Z,97467.60
2018-08-13T16:50:33.019Z,97477.38
2018-08-13T16:53:02.164Z,97477.14
2018-08-13T16:55:32.435Z,97475.73
2018-08-13T16:58:02.024Z,97479.04
2018-08-13T17:00:31.962Z,97472.92
2018-08-13T17:03:01.146Z,97478.64
2018-08-13T17:05:31.786Z,97489.69
2018-08-13T17:08:00.648Z,97487.33
2018-08-13T17:10:30.150Z,97485.83
2018-08-13T17:12:59.494Z,97494.00
2018-08-13T17:15:31.737Z,97499.66
2018-08-13T17:18:01.911Z,97486.29
2018-08-13T17:20:31.972Z,97486.94
2018-08-13T17:23:01.055Z,97489.02
2018-08-13T17:25:30.211Z,97487.12
2018-08-13T17:28:00.113Z,97480.67
2018-08-13T17:30:29.478Z,97485.24
2018-08-13T17:33:00.105Z,97486.69
2018-08-13T17:35:36.675Z,97489.08
2018-08-13T17:38:07.841Z,97497.73
2018-08-13T17:40:37.466Z,97490.42
2018-08-13T17:43:08.071Z,97495.28
2018-08-13T17:45:36.806Z,97492.00
2018-08-13T17:48:08.165Z,97505.34
2018-08-13T17:50:37.322Z,97499.58
2018-08-13T17:53:07.304Z,97498.08
2018-08-13T17:55:36.441Z,97504.70
2018-08-13T17:58:05.856Z,97504.79
2018-08-13T18:00:34.946Z,97503.12
2018-08-13T18:03:04.633Z,97497.20
2018-08-13T18:05:33.550Z,97503.27
2018-08-13T18:08:02.720Z,97495.99
2018-08-13T18:10:33.388Z,97499.70
2018-08-13T18:13:03.980Z,97507.38
2018-08-13T18:15:32.935Z,97498.72
2018-08-13T18:18:03.297Z,97511.45
2018-08-13T18:20:32.061Z,97511.27
2018-08-13T18:23:01.047Z,97511.05
2018-08-13T18:25:30.645Z,97514.61
2018-08-13T18:27:59.510Z,97521.69
2018-08-13T18:30:29.595Z,97520.73
2018-08-13T18:32:58.960Z,97525.99
2018-08-13T18:35:28.195Z,97522.81
2018-08-13T18:37:57.484Z,97529.84
2018-08-13T18:40:31.419Z,97526.77
2018-08-13T18:43:00.751Z,97540.09
2018-08-13T18:45:31.846Z,97539.14
2018-08-13T18:48:00.994Z,97550.59
2018-08-13T18:50:30.010Z,97561.93
2018-08-13T18:52:59.547Z,97554.05
2018-08-13T18:55:28.695Z,97553.09
2018-08-13T18:57:57.675Z,97569.13
2018-08-13T19:00:29.301Z,97569.88
2018-08-13T19:03:00.321Z,97572.38
2018-08-13T19:05:29.655Z,97571.69
2018-08-13T19:07:58.696Z,97570.34
2018-08-13T19:10:29.137Z,97576.58
2018-08-13T19:12:58.257Z,97581.01
2018-08-13T19:15:28.982Z,97582.48
2018-08-13T19:17:58.546Z,97585.19
2018-08-13T19:20:27.326Z,97584.28
2018-08-13T19:22:56.141Z,97590.03
2018-08-13T19:25:27.330Z,97591.81
2018-08-13T19:27:56.421Z,97590.38
2018-08-13T19:30:25.990Z,97592.73
2018-08-13T19:32:55.151Z,97589.42
2018-08-13T19:35:24.090Z,97589.34
2018-08-13T19:37:53.192Z,97598.33
2018-08-13T19:40:24.447Z,97595.93
2018-08-13T19:42:53.647Z,97592.72
2018-08-13T19:45:23.355Z,97600.99
2018-08-13T19:47:52.913Z,97594.47
2018-08-13T19:50:22.230Z,97586.44
2018-08-13T19:52:51.712Z,97586.97
2018-08-13T19:55:21.168Z,97591.90
2018-08-13T19:57:50.020Z,97594.64
2018-08-13T20:00:20.815Z,97593.70
2018-08-13T20:02:51.916Z,97593.70
2018-08-13T20:05:22.492Z,97594.22
2018-08-13T20:07:52.817Z,97592.13
2018-08-13T20:10:21.812Z,97591.52
2018-08-13T20:12:51.458Z,97588.21
2018-08-13T20:15:20.447Z,97586.27
2018-08-13T20:17:50.397Z,97584.09
2018-08-13T20:20:21.019Z,97586.98
2018-08-13T20:22:51.218Z,97590.68
2018-08-13T20:25:22.198Z,97593.09
2018-08-13T20:27:52.281Z,97591.50
2018-08-13T20:30:23.311Z,97593.95
2018-08-13T20:32:53.786Z,97600.04
2018-08-13T20:35:23.122Z,97596.65
2018-08-13T20:37:52.852Z,97592.68
2018-08-13T20:40:22.461Z,97605.95
2018-08-13T20:42:51.791Z,97604.45
2018-08-13T20:45:22.255Z,97609.08
2018-08-13T20:47:52.064Z,97611.77
2018-08-13T20:50:25.269Z,97612.91
2018-08-13T20:52:55.175Z,97618.70
2018-08-13T20:55:26.521Z,97628.06
2018-08-13T20:57:56.661Z,97629.52
2018-08-13T21:00:27.842Z,97629.52
2018-08-13T21:02:57.128Z,97631.45
2018-08-13T21:05:26.496Z,97629.52
2018-08-13T21:07:55.556Z,97639.16
2018-08-13T21:10:25.324Z,97639.73
2018-08-13T21:12:54.317Z,97641.39
2018-08-13T21:15:23.442Z,97652.83
2018-08-13T21:17:52.398Z,97636.19
2018-08-13T21:20:24.602Z,97643.04
2018-08-13T21:22:53.785Z,97648.95
2018-08-13T21:25:22.615Z,97649.66
2018-08-13T21:27:51.293Z,97650.60
2018-08-13T21:30:20.337Z,97641.30
2018-08-13T21:32:49.225Z,97642.33
2018-08-13T21:35:20.213Z,97646.64
2018-08-13T21:37:50.102Z,97644.89
2018-08-13T21:40:18.838Z,97654.57
2018-08-13T21:42:48.026Z,97658.02
2018-08-13T21:45:16.866Z,97652.48
2018-08-13T21:47:45.828Z,97656.37
2018-08-13T21:50:17.077Z,97663.22
2018-08-13T21:52:47.412Z,97663.59
2018-08-13T21:55:16.636Z,97663.59
2018-08-13T21:57:45.366Z,97665.53
2018-08-13T22:00:20.578Z,97665.33
2018-08-13T22:02:49.980Z,97661.36
2018-08-13T22:05:19.326Z,97663.16
2018-08-13T22:07:48.451Z,97671.95
2018-08-13T22:10:17.740Z,97676.44
2018-08-13T22:12:47.057Z,97674.63
2018-08-13T22:15:34.036Z,97678.80
2018-08-13T22:18:07.628Z,97695.09
2018-08-13T22:20:37.972Z,97687.67
2018-08-13T22:23:08.629Z,97682.70
2018-08-13T22:25:42.456Z,97689.55
2018-08-13T22:28:12.377Z,97685.59
2018-08-13T22:30:41.080Z,97684.30
2018-08-13T22:33:11.842Z,97678.09
2018-08-13T22:35:41.080Z,97694.77
2018-08-13T22:38:10.446Z,97694.91
2018-08-13T22:40:39.808Z,97697.35
2018-08-13T22:43:08.966Z,97701.97
2018-08-13T22:45:37.942Z,97701.33
2018-08-13T22:48:07.437Z,97705.91
2018-08-13T22:50:36.615Z,97711.39
2018-08-13T22:53:05.710Z,97716.86
2018-08-13T22:55:35.842Z,97721.57
2018-08-13T22:58:05.035Z,97721.34
2018-08-13T23:00:34.606Z,97726.91
2018-08-13T23:03:03.668Z,97722.80
2018-08-13T23:05:32.307Z,97724.08
2018-08-13T23:08:01.155Z,97725.08
2018-08-13T23:10:29.826Z,97730.41
2018-08-13T23:12:58.521Z,97730.52
2018-08-13T23:15:27.611Z,97739.36
2018-08-13T23:17:56.576Z,97737.16
2018-08-13T23:20:28.289Z,97735.22
2018-08-13T23:23:00.207Z,97739.33
2018-08-13T23:25:29.741Z,97746.61
2018-08-13T23:27:59.602Z,97741.33
2018-08-13T23:30:29.065Z,97750.71
2018-08-13T23:32:59.363Z,97747.31
2018-08-13T23:35:29.105Z,97742.77
2018-08-13T23:37:58.433Z,97739.16
2018-08-13T23:40:28.855Z,97741.73
2018-08-13T23:42:57.940Z,97743.54
2018-08-13T23:45:31.256Z,97737.40
2018-08-13T23:48:00.285Z,97747.45
2018-08-13T23:50:29.476Z,97739.94
2018-08-13T23:53:00.233Z,97737.70
2018-08-13T23:55:31.415Z,97737.77
2018-08-13T23:58:01.231Z,97738.45
